createdAt,value
2017-07-03T00:01:56.698Z,19.64
2017-07-03T00:03:32.968Z,19.53
2017-07-03T00:05:56.899Z,19.53
2017-07-03T00:08:20.790Z,19.55
2017-07-03T00:10:44.706Z,19.63
2017-07-03T00:13:08.549Z,19.66
2017-07-03T00:15:32.439Z,19.48
2017-07-03T00:17:56.327Z,19.52
2017-07-03T00:20:20.148Z,19.38
2017-07-03T00:22:44.029Z,19.59
2017-07-03T00:25:08.061Z,19.74
2017-07-03T00:27:31.786Z,19.78
2017-07-03T00:29:55.645Z,19.63
2017-07-03T00:32:19.476Z,19.74
2017-07-03T00:34:59.919Z,19.78
2017-07-03T00:37:23.845Z,19.89
2017-07-03T00:39:47.571Z,19.64
2017-07-03T00:42:11.384Z,19.71
2017-07-03T00:44:35.242Z,19.75
2017-07-03T00:46:59.101Z,19.78
2017-07-03T00:49:22.924Z,19.72
2017-07-03T00:51:46.819Z,19.47
2017-07-03T00:54:10.695Z,19.48
2017-07-03T00:56:34.458Z,19.42
2017-07-03T00:58:58.331Z,19.53
2017-07-03T01:01:22.193Z,19.52
2017-07-03T01:03:46.040Z,19.66
2017-07-03T01:06:09.881Z,19.66
2017-07-03T01:08:33.655Z,19.48
2017-07-03T01:10:49.118Z,19.39
2017-07-03T01:13:12.912Z,19.37
2017-07-03T01:15:36.775Z,19.48
2017-07-03T01:18:00.572Z,19.37
2017-07-03T01:20:15.987Z,19.45
2017-07-03T01:22:39.836Z,19.41
2017-07-03T01:25:03.568Z,19.19
2017-07-03T01:27:27.440Z,19.39
2017-07-03T01:29:51.247Z,19.42
2017-07-03T01:32:15.080Z,19.48
2017-07-03T01:34:38.939Z,19.47
2017-07-03T01:37:02.736Z,19.66
2017-07-03T01:39:26.555Z,19.55
2017-07-03T01:41:50.448Z,19.44
2017-07-03T01:44:14.227Z,19.41
2017-07-03T01:46:38.075Z,19.42
2017-07-03T01:50:38.000Z,19.53
2017-07-03T01:53:01.820Z,19.52
2017-07-03T01:55:25.692Z,19.71
2017-07-03T01:57:45.763Z,19.64
2017-07-03T02:00:12.486Z,19.66
2017-07-03T02:02:36.381Z,19.64
2017-07-03T02:05:00.196Z,19.81
2017-07-03T02:07:24.143Z,19.57
2017-07-03T02:09:47.973Z,19.64
2017-07-03T02:12:11.880Z,19.6
2017-07-03T02:14:35.729Z,19.66
2017-07-03T02:16:46.028Z,19.67
2017-07-03T02:19:09.916Z,19.56
2017-07-03T02:21:33.782Z,19.78
2017-07-03T02:23:57.591Z,19.71
2017-07-03T02:26:21.453Z,19.47
2017-07-03T02:28:45.228Z,19.47
2017-07-03T02:31:09.113Z,19.55
2017-07-03T02:33:32.963Z,19.49
2017-07-03T02:35:56.733Z,19.71
2017-07-03T02:38:20.621Z,19.55
2017-07-03T02:40:44.431Z,19.7
2017-07-03T02:43:08.290Z,19.77
2017-07-03T02:45:32.088Z,19.7
2017-07-03T02:47:56.032Z,19.57
2017-07-03T02:50:19.920Z,19.48
2017-07-03T02:52:43.730Z,19.27
2017-07-03T02:55:07.636Z,19.47
2017-07-03T02:57:31.486Z,19.63
2017-07-03T02:59:55.320Z,19.66
2017-07-03T03:02:19.219Z,19.57
2017-07-03T03:04:43.138Z,19.7
2017-07-03T03:07:06.956Z,19.64
2017-07-03T03:09:30.830Z,19.64
2017-07-03T03:11:54.648Z,19.75
2017-07-03T03:14:18.538Z,19.75
2017-07-03T03:18:18.572Z,19.75
2017-07-03T03:20:42.503Z,19.78
2017-07-03T03:23:06.359Z,19.75
2017-07-03T03:25:30.200Z,19.75
2017-07-03T03:27:54.010Z,19.75
2017-07-03T03:30:17.808Z,19.81
2017-07-03T03:32:41.644Z,19.7
2017-07-03T03:35:05.445Z,19.78
2017-07-03T03:37:29.334Z,19.7
2017-07-03T03:39:53.157Z,19.71
2017-07-03T03:42:17.032Z,19.67
2017-07-03T03:44:40.821Z,19.63
2017-07-03T03:47:04.683Z,19.7
2017-07-03T03:49:28.512Z,19.78
2017-07-03T03:51:52.492Z,19.62
2017-07-03T03:54:16.358Z,19.47
2017-07-03T03:56:40.239Z,19.52
2017-07-03T03:59:04.037Z,19.71
2017-07-03T04:01:27.881Z,19.78
2017-07-03T04:03:51.755Z,19.7
2017-07-03T04:06:15.817Z,19.66
2017-07-03T04:08:39.501Z,19.75
2017-07-03T04:11:03.373Z,19.81
2017-07-03T04:13:27.160Z,19.89
2017-07-03T04:15:51.573Z,20.12
2017-07-03T04:18:15.381Z,19.94
2017-07-03T04:20:39.233Z,20.03
2017-07-03T04:23:03.103Z,20.08
2017-07-03T04:25:26.944Z,20.15
2017-07-03T04:27:50.848Z,20.21
2017-07-03T04:30:14.793Z,20.29
2017-07-03T04:32:38.686Z,20.17
2017-07-03T04:35:02.580Z,19.75
2017-07-03T04:37:26.442Z,19.7
2017-07-03T04:39:50.332Z,19.74
2017-07-03T04:42:14.279Z,20.04
2017-07-03T04:44:38.237Z,19.97
2017-07-03T04:48:38.270Z,20.18
2017-07-03T04:51:02.244Z,20.15
2017-07-03T04:53:26.192Z,20.19
2017-07-03T04:55:50.152Z,20.11
2017-07-03T04:58:14.438Z,20.17
2017-07-03T05:00:38.154Z,20.34
2017-07-03T05:03:02.606Z,20.44
2017-07-03T05:05:26.636Z,20.33
2017-07-03T05:07:50.488Z,20.55
2017-07-03T05:10:15.462Z,20.85
2017-07-03T05:12:38.344Z,20.68
2017-07-03T05:15:02.286Z,20.18
2017-07-03T05:17:28.347Z,20.5
2017-07-03T05:19:52.488Z,20.66
2017-07-03T05:22:16.464Z,21.15
2017-07-03T05:24:40.403Z,21.35
2017-07-03T05:27:04.400Z,26.56
2017-07-03T05:29:28.486Z,29.12
2017-07-03T05:31:52.761Z,32.78
2017-07-03T05:34:08.800Z,33.29
2017-07-03T05:36:33.540Z,35.22
2017-07-03T05:38:58.541Z,36.47
2017-07-03T05:41:23.666Z,36.89
2017-07-03T05:43:48.922Z,34.32
2017-07-03T05:46:14.227Z,30.76
2017-07-03T05:48:39.503Z,30.21
2017-07-03T05:51:04.584Z,27.98
2017-07-03T05:53:29.575Z,26.52
2017-07-03T05:55:54.445Z,25.86
2017-07-03T05:58:19.207Z,25.19
2017-07-03T06:00:43.827Z,24.66
2017-07-03T06:03:08.420Z,24.65
2017-07-03T06:07:08.621Z,24.11
2017-07-03T06:09:33.065Z,23.91
2017-07-03T06:11:57.461Z,23.7
2017-07-03T06:14:21.781Z,23.11
2017-07-03T06:16:46.029Z,23.29
2017-07-03T06:19:10.231Z,23.06
2017-07-03T06:21:34.459Z,23.06
2017-07-03T06:23:58.783Z,22.93
2017-07-03T06:26:22.919Z,22.89
2017-07-03T06:28:47.129Z,23.16
2017-07-03T06:31:11.319Z,23.07
2017-07-03T06:33:21.763Z,23.11
2017-07-03T06:35:46.001Z,23.06
2017-07-03T06:38:10.446Z,22.61
2017-07-03T06:40:20.936Z,22.52
2017-07-03T06:42:45.127Z,22.61
2017-07-03T06:45:01.040Z,22.37
2017-07-03T06:47:25.907Z,22.22
2017-07-03T06:49:50.564Z,22.44
2017-07-03T06:52:14.646Z,22.67
2017-07-03T06:54:38.984Z,22.78
2017-07-03T06:57:03.005Z,22.65
2017-07-03T06:59:28.257Z,22.21
2017-07-03T07:01:52.557Z,22.49
2017-07-03T07:04:16.727Z,22.52
2017-07-03T07:06:45.351Z,22.41
2017-07-03T07:09:09.528Z,22.68
2017-07-03T07:11:33.607Z,22.47
2017-07-03T07:13:57.728Z,22.28
2017-07-03T07:16:21.810Z,22.55
2017-07-03T07:18:45.963Z,22.81
2017-07-03T07:21:10.120Z,23.56
2017-07-03T07:23:34.291Z,23.13
2017-07-03T07:25:58.449Z,22.61
2017-07-03T07:28:00.286Z,23.06
2017-07-03T07:30:21.841Z,23.47
2017-07-03T07:32:37.625Z,23.32
2017-07-03T07:36:38.592Z,23.1
2017-07-03T07:39:02.810Z,23.28
2017-07-03T07:41:27.029Z,22.77
2017-07-03T07:43:51.266Z,22.67
2017-07-03T07:46:15.422Z,22.93
2017-07-03T07:48:39.596Z,22.7
2017-07-03T07:51:03.755Z,23.21
2017-07-03T07:53:27.909Z,23.82
2017-07-03T07:55:52.115Z,23.49
2017-07-03T07:58:16.283Z,23.16
2017-07-03T08:00:40.432Z,23.21
2017-07-03T08:03:04.626Z,23.55
2017-07-03T08:05:28.795Z,23.49
2017-07-03T08:07:55.803Z,23.91
2017-07-03T08:10:20.044Z,24.46
2017-07-03T08:12:44.292Z,24.48
2017-07-03T08:15:08.578Z,24.63
2017-07-03T08:17:32.835Z,24.43
2017-07-03T08:19:57.065Z,24.11
2017-07-03T08:22:21.355Z,23.74
2017-07-03T08:24:23.290Z,23.74
2017-07-03T08:26:47.607Z,24.06
2017-07-03T08:29:11.877Z,23.99
2017-07-03T08:31:36.349Z,23.63
2017-07-03T08:34:00.535Z,23.86
2017-07-03T08:35:37.086Z,23.86
2017-07-03T08:37:53.089Z,24.04
2017-07-03T08:40:18.702Z,23.69
2017-07-03T08:42:42.924Z,23.67
2017-07-03T08:45:07.308Z,24.1
2017-07-03T08:47:31.630Z,23.69
2017-07-03T08:49:55.924Z,24.21
2017-07-03T08:52:20.182Z,24.19
2017-07-03T08:54:44.494Z,24.61
2017-07-03T08:57:08.803Z,24.16
2017-07-03T08:59:33.144Z,23.66
2017-07-03T09:01:09.383Z,23.58
2017-07-03T09:03:33.757Z,24.16
2017-07-03T09:05:58.086Z,27.41
2017-07-03T09:08:22.509Z,30.17
2017-07-03T09:10:46.935Z,31.92
2017-07-03T09:13:11.566Z,30.83
2017-07-03T09:15:36.365Z,29.52
2017-07-03T09:18:01.010Z,29.74
2017-07-03T09:20:25.757Z,31.14
2017-07-03T09:22:36.334Z,31.35
2017-07-03T09:28:21.651Z,33.91
2017-07-03T09:30:41.038Z,34.13
2017-07-03T09:32:44.752Z,33.92
2017-07-03T09:35:10.593Z,34.69
2017-07-03T09:37:35.814Z,32.12
2017-07-03T09:39:59.450Z,31.47
2017-07-03T09:42:25.054Z,32.38
2017-07-03T09:44:50.350Z,34.06
2017-07-03T09:47:15.480Z,34.63
2017-07-03T09:49:40.886Z,34.25
2017-07-03T09:52:07.218Z,33.95
2017-07-03T09:54:32.422Z,34.65
2017-07-03T09:56:57.507Z,34.76
2017-07-03T09:59:22.707Z,32.37
2017-07-03T10:01:47.956Z,34.32
2017-07-03T10:04:13.095Z,32.41
2017-07-03T10:06:38.282Z,30.58
2017-07-03T10:09:03.389Z,32.16
2017-07-03T10:11:28.480Z,32.66
2017-07-03T10:13:53.597Z,31.42
2017-07-03T10:16:18.572Z,30.17
2017-07-03T10:18:43.678Z,30.99
2017-07-03T10:21:08.569Z,30.77
2017-07-03T10:23:33.523Z,30.7
2017-07-03T10:25:58.439Z,31.08
2017-07-03T10:28:23.425Z,29.67
2017-07-03T10:30:49.036Z,30.85
2017-07-03T10:33:14.020Z,30.92
2017-07-03T10:35:38.779Z,30.74
2017-07-03T10:38:03.620Z,30.81
2017-07-03T10:40:28.517Z,31.77
2017-07-03T10:42:53.431Z,31.15
2017-07-03T10:45:18.312Z,30.4
2017-07-03T10:47:43.312Z,30.2
2017-07-03T10:50:08.191Z,29.84
2017-07-03T10:52:33.110Z,29.59
2017-07-03T10:54:58.001Z,28.34
2017-07-03T10:57:22.715Z,28.3
2017-07-03T10:59:47.602Z,29.16
2017-07-03T11:02:12.353Z,29.25
2017-07-03T11:04:37.229Z,29.06
2017-07-03T11:07:03.135Z,29.13
2017-07-03T11:09:29.633Z,30.51
2017-07-03T11:11:54.568Z,30.18
2017-07-03T11:14:19.393Z,29.61
2017-07-03T11:16:45.959Z,30.1
2017-07-03T11:19:10.760Z,30.52
2017-07-03T11:21:35.714Z,30.31
2017-07-03T11:24:00.552Z,29.98
2017-07-03T11:26:16.925Z,29.81
2017-07-03T11:28:41.757Z,30.23
2017-07-03T11:31:06.527Z,29.84
2017-07-03T11:33:31.418Z,29.37
2017-07-03T11:35:56.267Z,28.96
2017-07-03T11:38:21.119Z,29.49
2017-07-03T11:40:45.870Z,29.79
2017-07-03T11:43:10.636Z,29.77
2017-07-03T11:45:35.445Z,29.05
2017-07-03T11:48:00.216Z,28.78
2017-07-03T11:50:25.072Z,29.42
2017-07-03T11:52:49.827Z,29.86
2017-07-03T11:55:14.658Z,30.33
2017-07-03T11:57:39.466Z,30.65
2017-07-03T11:59:41.511Z,29.27
2017-07-03T12:02:06.313Z,29.83
2017-07-03T12:04:31.158Z,28.52
2017-07-03T12:06:41.280Z,28.9
2017-07-03T12:09:06.099Z,28.78
2017-07-03T12:11:22.356Z,28.53
2017-07-03T12:13:47.985Z,28.3
2017-07-03T12:16:04.246Z,29.09
2017-07-03T12:18:20.425Z,29.64
2017-07-03T12:20:45.118Z,29.59
2017-07-03T12:22:47.173Z,29.89
2017-07-03T12:25:03.474Z,29.21
2017-07-03T12:27:05.561Z,29.42
2017-07-03T12:29:30.332Z,29.92
2017-07-03T12:31:55.184Z,30.11
2017-07-03T12:34:19.940Z,30.05
2017-07-03T12:36:44.741Z,30.18
2017-07-03T12:38:55.231Z,29.02
2017-07-03T12:40:57.302Z,29.37
2017-07-03T12:43:22.205Z,30.18
2017-07-03T12:45:46.997Z,30.26
2017-07-03T12:48:11.784Z,30.05
2017-07-03T12:50:36.506Z,30.13
2017-07-03T12:53:02.061Z,29.74
2017-07-03T12:55:26.784Z,29.22
2017-07-03T12:57:51.584Z,29.2
2017-07-03T13:00:16.269Z,29.13
2017-07-03T13:02:41.078Z,29.52
2017-07-03T13:05:05.796Z,29.37
2017-07-03T13:07:30.533Z,29.2
2017-07-03T13:09:55.255Z,29.06
2017-07-03T13:12:11.528Z,28.31
2017-07-03T13:14:36.673Z,28.38
2017-07-03T13:17:01.303Z,28.67
2017-07-03T13:19:25.956Z,28.86
2017-07-03T13:21:50.693Z,28.23
2017-07-03T13:24:15.284Z,28.22
2017-07-03T13:26:39.909Z,28.82
2017-07-03T13:29:04.592Z,29.42
2017-07-03T13:31:29.290Z,29.2
2017-07-03T13:33:54.977Z,29.42
2017-07-03T13:36:19.656Z,29.16
2017-07-03T13:37:55.987Z,29.27
2017-07-03T13:40:12.255Z,28.86
2017-07-03T13:42:28.542Z,29.2
2017-07-03T13:44:53.271Z,30.21
2017-07-03T13:47:18.000Z,29.71
2017-07-03T13:49:42.742Z,29.73
2017-07-03T13:52:07.507Z,29.87
2017-07-03T13:54:32.141Z,29.79
2017-07-03T13:56:56.795Z,28.7
2017-07-03T13:59:21.429Z,29.07
2017-07-03T14:01:46.186Z,29.39
2017-07-03T14:04:10.804Z,29.27
2017-07-03T14:06:35.544Z,28.93
2017-07-03T14:09:00.179Z,28.7
2017-07-03T14:11:24.870Z,28.75
2017-07-03T14:13:49.502Z,28.09
2017-07-03T14:16:14.182Z,27.79
2017-07-03T14:18:38.673Z,27.85
2017-07-03T14:21:03.316Z,27.88
2017-07-03T14:23:27.904Z,28.55
2017-07-03T14:25:04.169Z,28.59
2017-07-03T14:27:28.916Z,29.12
2017-07-03T14:29:53.588Z,29.39
2017-07-03T14:32:18.190Z,29.1
2017-07-03T14:34:42.877Z,29.53
2017-07-03T14:37:07.603Z,29.67
2017-07-03T14:39:32.234Z,30.31
2017-07-03T14:41:57.351Z,29.79
2017-07-03T14:44:22.027Z,29.34
2017-07-03T14:46:46.760Z,29.16
2017-07-03T14:49:11.596Z,29.2
2017-07-03T14:51:36.291Z,29.15
2017-07-03T14:54:01.013Z,29.09
2017-07-03T14:56:11.026Z,29.34
2017-07-03T14:58:35.777Z,29.15
2017-07-03T15:01:00.556Z,29.09
2017-07-03T15:03:25.273Z,29.4
2017-07-03T15:05:50.004Z,29.67
2017-07-03T15:08:06.214Z,29.39
2017-07-03T15:10:16.779Z,28.7
2017-07-03T15:12:41.522Z,28.04
2017-07-03T15:15:06.220Z,28.04
2017-07-03T15:17:30.966Z,28.35
2017-07-03T15:19:55.643Z,28.49
2017-07-03T15:22:20.302Z,28.93
2017-07-03T15:24:44.985Z,28.55
2017-07-03T15:27:01.169Z,28.53
2017-07-03T15:29:25.702Z,29.05
2017-07-03T15:31:50.401Z,28.89
2017-07-03T15:34:14.959Z,28.55
2017-07-03T15:36:39.618Z,28.37
2017-07-03T15:38:55.748Z,28.06
2017-07-03T15:41:20.375Z,28.04
2017-07-03T15:43:45.039Z,28.04
2017-07-03T15:46:09.636Z,28.37
2017-07-03T15:48:34.610Z,28.56
2017-07-03T15:50:59.654Z,28.55
2017-07-03T15:53:24.274Z,28.56
2017-07-03T15:55:49.233Z,29
2017-07-03T15:58:14.956Z,28.96
2017-07-03T16:00:39.862Z,28.9
2017-07-03T16:03:06.748Z,28.75
2017-07-03T16:05:33.521Z,28.59
2017-07-03T16:07:57.530Z,28.03
2017-07-03T16:10:22.840Z,28.43
2017-07-03T16:12:47.395Z,28.53
2017-07-03T16:15:12.422Z,28.59
2017-07-03T16:17:38.596Z,28.49
2017-07-03T16:20:04.680Z,28.37
2017-07-03T16:22:29.440Z,28.27
2017-07-03T16:25:00.382Z,28.52
2017-07-03T16:27:11.523Z,28.52
2017-07-03T16:29:35.593Z,28.22
2017-07-03T16:32:01.826Z,28.35
2017-07-03T16:34:30.560Z,28.38
2017-07-03T16:36:38.529Z,27.97
2017-07-03T16:39:07.378Z,28.18
2017-07-03T16:44:56.072Z,28.55
2017-07-03T16:47:27.797Z,28.57
2017-07-03T16:49:55.447Z,28.43
2017-07-03T16:52:29.254Z,28.41
2017-07-03T16:56:35.995Z,28.16
2017-07-03T16:59:02.626Z,28.31
2017-07-03T17:01:27.618Z,28.28
2017-07-03T17:03:44.479Z,28.19
2017-07-03T17:06:09.259Z,28.1
2017-07-03T17:08:34.167Z,28.25
2017-07-03T17:10:59.620Z,28.25
2017-07-03T17:13:24.413Z,27.86
2017-07-03T17:15:48.911Z,27.97
2017-07-03T17:18:13.578Z,28.08
2017-07-03T17:20:38.194Z,27.81
2017-07-03T17:23:02.899Z,27.88
2017-07-03T17:25:27.565Z,27.64
2017-07-03T17:27:52.386Z,27.67
2017-07-03T17:30:16.967Z,27.94
2017-07-03T17:32:41.631Z,28
2017-07-03T17:35:06.255Z,27.72
2017-07-03T17:37:30.929Z,27.47
2017-07-03T17:39:56.471Z,27.61
2017-07-03T17:42:24.285Z,27.75
2017-07-03T17:44:48.965Z,27.61
2017-07-03T17:47:13.622Z,27.55
2017-07-03T17:49:38.171Z,27.83
2017-07-03T17:51:49.096Z,27.67
2017-07-03T17:54:13.730Z,27.58
2017-07-03T17:56:38.365Z,27.53
2017-07-03T17:59:03.047Z,27.72
2017-07-03T18:01:27.593Z,27.4
2017-07-03T18:03:52.284Z,27.25
2017-07-03T18:06:16.857Z,27.13
2017-07-03T18:08:41.626Z,27.07
2017-07-03T18:11:06.159Z,27.1
2017-07-03T18:13:30.689Z,26.98
2017-07-03T18:15:55.225Z,26.93
2017-07-03T18:18:19.761Z,26.88
2017-07-03T18:20:44.206Z,26.91
2017-07-03T18:23:08.821Z,26.82
2017-07-03T18:25:33.255Z,26.88
2017-07-03T18:27:57.805Z,26.82
2017-07-03T18:30:22.251Z,26.97
2017-07-03T18:32:46.711Z,26.85
2017-07-03T18:35:11.597Z,26.66
2017-07-03T18:37:36.033Z,26.97
2017-07-03T18:40:00.556Z,27.08
2017-07-03T18:42:25.303Z,27.1
2017-07-03T18:44:49.754Z,26.92
2017-07-03T18:46:57.360Z,26.71
2017-07-03T18:49:21.886Z,27
2017-07-03T18:51:46.375Z,27.15
2017-07-03T18:54:10.873Z,27.01
2017-07-03T18:56:35.404Z,26.96
2017-07-03T18:58:37.423Z,26.97
2017-07-03T19:01:01.956Z,26.89
2017-07-03T19:03:26.522Z,26.7
2017-07-03T19:05:50.939Z,26.59
2017-07-03T19:08:07.049Z,26.68
2017-07-03T19:10:31.547Z,26.59
2017-07-03T19:12:42.418Z,26.42
2017-07-03T19:15:06.915Z,26.22
2017-07-03T19:19:07.443Z,26.22
2017-07-03T19:21:31.911Z,26.22
2017-07-03T19:23:56.654Z,26.06
2017-07-03T19:26:21.042Z,26.11
2017-07-03T19:28:45.445Z,26.03
2017-07-03T19:31:09.882Z,26.04
2017-07-03T19:33:34.322Z,25.88
2017-07-03T19:35:58.686Z,25.88
2017-07-03T19:38:23.108Z,25.92
2017-07-03T19:40:24.607Z,25.85
2017-07-03T19:42:49.042Z,25.88
2017-07-03T19:45:13.495Z,25.86
2017-07-03T19:47:37.944Z,25.76
2017-07-03T19:50:02.503Z,25.71
2017-07-03T19:52:26.966Z,25.76
2017-07-03T19:54:51.342Z,25.66
2017-07-03T19:57:15.776Z,25.49
2017-07-03T19:59:31.704Z,25.52
2017-07-03T20:01:56.732Z,25.41
2017-07-03T20:04:21.059Z,25.34
2017-07-03T20:06:45.608Z,25.25
2017-07-03T20:09:10.021Z,25.21
2017-07-03T20:11:34.469Z,25.24
2017-07-03T20:13:58.846Z,25.09
2017-07-03T20:16:24.618Z,25.03
2017-07-03T20:18:48.581Z,25.01
2017-07-03T20:21:12.907Z,24.86
2017-07-03T20:23:37.256Z,24.93
2017-07-03T20:26:01.540Z,24.97
2017-07-03T20:28:02.995Z,24.92
2017-07-03T20:30:27.351Z,24.63
2017-07-03T20:32:37.320Z,24.69
2017-07-03T20:35:01.661Z,24.63
2017-07-03T20:37:11.673Z,24.61
2017-07-03T20:39:36.014Z,24.32
2017-07-03T20:42:00.349Z,24.48
2017-07-03T20:44:16.223Z,24.32
2017-07-03T20:46:40.530Z,24.34
2017-07-03T20:49:04.849Z,24.18
2017-07-03T20:51:29.163Z,24.14
2017-07-03T20:53:53.488Z,24.22
2017-07-03T20:56:17.855Z,24.19
2017-07-03T20:58:27.761Z,24.14
2017-07-03T21:00:52.065Z,24.04
2017-07-03T21:03:16.359Z,23.89
2017-07-03T21:05:40.731Z,23.69
2017-07-03T21:08:05.004Z,23.49
2017-07-03T21:10:20.833Z,23.74
2017-07-03T21:12:45.096Z,23.63
2017-07-03T21:15:09.297Z,23.48
2017-07-03T21:17:33.518Z,23.49
2017-07-03T21:19:57.692Z,23.32
2017-07-03T21:22:21.911Z,23.54
2017-07-03T21:24:46.128Z,23.47
2017-07-03T21:27:10.334Z,23.54
2017-07-03T21:29:34.569Z,23.55
2017-07-03T21:31:58.798Z,23.51
2017-07-03T21:34:22.999Z,23.48
2017-07-03T21:36:47.226Z,23.47
2017-07-03T21:39:11.458Z,23.29
2017-07-03T21:41:35.659Z,23.29
2017-07-03T21:43:59.903Z,23.28
2017-07-03T21:46:23.979Z,23.2
2017-07-03T21:48:48.183Z,23.07
2017-07-03T21:51:12.522Z,23.23
2017-07-03T21:53:36.699Z,22.99
2017-07-03T21:56:00.857Z,22.98
2017-07-03T21:58:25.053Z,22.81
2017-07-03T22:00:49.261Z,22.65
2017-07-03T22:03:05.021Z,22.8
2017-07-03T22:05:20.770Z,23.02
2017-07-03T22:07:36.547Z,23.11
2017-07-03T22:10:00.608Z,23.02
2017-07-03T22:12:24.780Z,22.93
2017-07-03T22:14:55.671Z,22.83
2017-07-03T22:17:19.770Z,22.78
2017-07-03T22:19:43.937Z,22.65
2017-07-03T22:22:08.135Z,22.68
2017-07-03T22:24:32.235Z,22.76
2017-07-03T22:26:56.418Z,22.68
2017-07-03T22:29:03.688Z,22.71
2017-07-03T22:31:27.842Z,22.7
2017-07-03T22:33:51.985Z,22.68
2017-07-03T22:36:16.161Z,22.67
2017-07-03T22:38:40.303Z,22.65
2017-07-03T22:41:04.417Z,22.53
2017-07-03T22:43:28.538Z,22.59
2017-07-03T22:45:44.232Z,22.37
2017-07-03T22:47:45.618Z,22.49
2017-07-03T22:50:01.353Z,22.4
2017-07-03T22:52:25.474Z,22.49
2017-07-03T22:54:49.592Z,22.38
2017-07-03T22:57:13.701Z,22.41
2017-07-03T22:59:29.419Z,22.62
2017-07-03T23:01:53.549Z,22.77
2017-07-03T23:04:17.689Z,22.81
2017-07-03T23:06:41.825Z,22.71
2017-07-03T23:08:52.245Z,22.7
2017-07-03T23:11:16.388Z,22.76
2017-07-03T23:13:18.248Z,22.55
2017-07-03T23:15:33.967Z,22.38
2017-07-03T23:17:49.661Z,22.52
2017-07-03T23:20:13.761Z,22.36
2017-07-03T23:22:37.829Z,22.44
2017-07-03T23:25:01.948Z,22.25
2017-07-03T23:27:17.606Z,22.07
2017-07-03T23:29:41.709Z,22.15
2017-07-03T23:32:05.796Z,22.22
2017-07-03T23:34:29.889Z,22.06
2017-07-03T23:36:53.991Z,22.36
2017-07-03T23:39:18.058Z,22.33
2017-07-03T23:41:42.139Z,22.37
2017-07-03T23:43:57.843Z,22.37
2017-07-03T23:46:22.025Z,22.33
2017-07-03T23:48:46.149Z,22.37
2017-07-03T23:51:10.294Z,22.15
2017-07-03T23:53:25.954Z,22.12
2017-07-03T23:55:50.050Z,22.25
2017-07-03T23:58:14.133Z,22.37
